createdAt,value
2022-11-24T00:01:13.455Z,47.70
2022-11-24T00:03:15.350Z,46.63
2022-11-24T00:05:17.026Z,40.67
2022-11-24T00:07:18.678Z,57.45
2022-11-24T00:11:25.217Z,45.95
2022-11-24T00:13:27.319Z,52.33
2022-11-24T00:15:29.035Z,50.70
2022-11-24T00:19:32.101Z,47.83
2022-11-24T00:21:33.832Z,49.30
2022-11-24T00:23:36.424Z,54.53
2022-11-24T00:25:38.075Z,63.13
2022-11-24T00:29:42.579Z,51.65
2022-11-24T00:33:46.701Z,51.60
2022-11-24T00:35:54.556Z,43.22
2022-11-24T00:37:56.210Z,46.28
2022-11-24T00:41:59.385Z,63.38
2022-11-24T00:46:04.476Z,53.70
2022-11-24T00:48:06.468Z,72.55
2022-11-24T00:50:08.760Z,64.13
2022-11-24T00:52:10.479Z,56.40
2022-11-24T00:54:12.170Z,54.00
2022-11-24T00:58:15.745Z,46.67
2022-11-24T01:00:19.200Z,52.60
2022-11-24T01:02:20.854Z,54.65
2022-11-24T01:06:25.492Z,51.60
2022-11-24T01:08:27.125Z,42.58
2022-11-24T01:12:30.200Z,78.25
2022-11-24T01:16:35.670Z,66.10
2022-11-24T01:18:37.313Z,48.45
2022-11-24T01:20:38.958Z,56.25
2022-11-24T01:24:42.092Z,63.83
2022-11-24T01:28:47.357Z,55.80
2022-11-24T01:30:57.346Z,55.42
2022-11-24T01:33:00.478Z,54.20
2022-11-24T01:35:02.218Z,56.20
2022-11-24T01:39:05.337Z,63.28
2022-11-24T01:43:16.386Z,67.55
2022-11-24T01:45:32.425Z,71.25
2022-11-24T01:47:36.165Z,47.88
2022-11-24T01:49:44.525Z,52.17
2022-11-24T01:51:52.936Z,55.40
2022-11-24T01:53:59.132Z,59.33
2022-11-24T01:56:00.952Z,57.78
2022-11-24T01:58:06.565Z,57.65
2022-11-24T02:00:10.877Z,51.92
2022-11-24T02:02:13.373Z,51.78
2022-11-24T02:04:19.453Z,60.25
2022-11-24T02:06:25.434Z,48.92
2022-11-24T02:08:34.890Z,47.88
2022-11-24T02:10:37.457Z,48.17
2022-11-24T02:12:42.196Z,50.42
2022-11-24T02:14:44.690Z,47.30
2022-11-24T02:16:49.503Z,47.38
2022-11-24T02:18:51.580Z,52.00
2022-11-24T02:20:53.238Z,47.60
2022-11-24T02:25:06.757Z,48.88
2022-11-24T02:27:10.628Z,68.80
2022-11-24T02:29:14.159Z,46.67
2022-11-24T02:31:15.958Z,64.47
2022-11-24T02:33:19.282Z,51.97
2022-11-24T02:35:21.148Z,47.03
2022-11-24T02:37:22.864Z,68.40
2022-11-24T02:41:27.644Z,44.45
2022-11-24T02:43:35.219Z,63.28
2022-11-24T02:45:37.002Z,54.20
2022-11-24T02:47:38.646Z,50.58
2022-11-24T02:51:41.870Z,73.65
2022-11-24T02:53:43.596Z,49.28
2022-11-24T02:57:47.100Z,47.50
2022-11-24T02:59:50.159Z,41.80
2022-11-24T03:01:52.152Z,40.78
2022-11-24T03:03:53.846Z,58.80
2022-11-24T03:07:56.953Z,51.63
2022-11-24T03:09:58.670Z,44.78
2022-11-24T03:14:01.832Z,46.25
2022-11-24T03:18:09.437Z,45.25
2022-11-24T03:22:13.392Z,41.95
2022-11-24T03:24:15.035Z,58.97
2022-11-24T03:26:18.858Z,48.40
2022-11-24T03:28:20.531Z,45.50
2022-11-24T03:32:25.175Z,54.03
2022-11-24T03:34:26.770Z,45.83
2022-11-24T03:36:28.436Z,51.55
2022-11-24T03:40:31.583Z,40.60
2022-11-24T03:42:33.580Z,54.28
2022-11-24T03:44:35.438Z,47.78
2022-11-24T03:46:37.370Z,49.80
2022-11-24T03:48:40.494Z,46.40
2022-11-24T03:50:42.242Z,45.35
2022-11-24T03:52:43.921Z,61.17
2022-11-24T03:56:47.116Z,63.35
2022-11-24T04:00:51.426Z,46.65
2022-11-24T04:02:53.228Z,48.10
2022-11-24T04:04:56.264Z,43.60
2022-11-24T04:06:57.878Z,50.53
2022-11-24T04:09:00.208Z,50.60
2022-11-24T04:11:01.851Z,47.20
2022-11-24T04:15:06.310Z,42.92
2022-11-24T04:17:08.007Z,66.28
2022-11-24T04:21:12.608Z,51.15
2022-11-24T04:23:14.241Z,45.20
2022-11-24T04:25:15.984Z,50.80
2022-11-24T04:29:19.071Z,42.65
2022-11-24T04:31:20.777Z,38.63
2022-11-24T04:35:24.626Z,51.15
2022-11-24T04:37:27.763Z,68.55
2022-11-24T04:39:29.497Z,42.42
2022-11-24T04:43:37.732Z,39.15
2022-11-24T04:45:41.971Z,42.60
2022-11-24T04:47:43.606Z,40.92
2022-11-24T04:49:47.021Z,41.33
2022-11-24T04:51:48.807Z,52.78
2022-11-24T04:53:51.764Z,43.03
2022-11-24T04:55:53.357Z,36.85
2022-11-24T04:57:55.253Z,39.85
2022-11-24T04:59:56.859Z,41.85
2022-11-24T05:01:58.613Z,34.53
2022-11-24T05:04:00.535Z,48.95
2022-11-24T05:06:02.443Z,43.65
2022-11-24T05:08:04.618Z,37.53
2022-11-24T05:10:08.517Z,36.65
2022-11-24T05:12:10.091Z,39.80
2022-11-24T05:14:11.641Z,35.28
2022-11-24T05:16:13.394Z,36.33
2022-11-24T05:18:15.517Z,48.83
2022-11-24T05:20:17.420Z,33.83
2022-11-24T05:22:19.048Z,34.53
2022-11-24T05:26:23.320Z,35.42
2022-11-24T05:28:24.909Z,32.70
2022-11-24T05:30:26.614Z,37.08
2022-11-24T05:34:29.626Z,34.67
2022-11-24T05:38:33.240Z,31.60
2022-11-24T05:40:34.816Z,39.63
2022-11-24T05:42:40.890Z,37.40
2022-11-24T05:44:46.630Z,27.33
2022-11-24T05:46:48.349Z,33.83
2022-11-24T05:48:49.951Z,30.67
2022-11-24T05:50:54.321Z,55.47
2022-11-24T05:52:55.913Z,43.28
2022-11-24T05:54:57.451Z,44.65
2022-11-24T05:56:59.001Z,32.10
2022-11-24T05:59:08.191Z,35.90
2022-11-24T06:01:11.311Z,33.00
2022-11-24T06:03:13.132Z,41.17
2022-11-24T06:05:14.880Z,33.63
2022-11-24T06:09:18.423Z,38.15
2022-11-24T06:13:21.717Z,31.85
2022-11-24T06:15:24.819Z,31.75
2022-11-24T06:17:26.401Z,34.47
2022-11-24T06:19:28.033Z,27.38
2022-11-24T06:21:30.161Z,27.25
2022-11-24T06:23:31.838Z,35.85
2022-11-24T06:27:34.801Z,49.67
2022-11-24T06:29:36.414Z,33.67
2022-11-24T06:31:39.425Z,32.20
2022-11-24T06:33:41.130Z,35.30
2022-11-24T06:35:42.714Z,32.90
2022-11-24T06:37:44.295Z,32.75
2022-11-24T06:39:45.947Z,36.60
2022-11-24T06:41:50.280Z,32.30
2022-11-24T06:43:51.970Z,41.35
2022-11-24T06:47:56.863Z,38.33
2022-11-24T06:50:00.573Z,28.20
2022-11-24T06:52:02.405Z,38.63
2022-11-24T06:54:09.481Z,34.20
2022-11-24T06:56:16.311Z,31.33
2022-11-24T06:58:18.604Z,26.85
2022-11-24T07:00:20.530Z,39.38
2022-11-24T07:02:22.105Z,36.78
2022-11-24T07:04:25.033Z,33.25
2022-11-24T07:06:26.995Z,35.40
2022-11-24T07:08:28.612Z,41.55
2022-11-24T07:10:30.201Z,38.63
2022-11-24T07:12:34.282Z,34.38
2022-11-24T07:14:36.288Z,34.45
2022-11-24T07:16:40.314Z,35.20
2022-11-24T07:18:42.291Z,35.08
2022-11-24T07:20:45.582Z,33.15
2022-11-24T07:22:47.206Z,33.20
2022-11-24T07:24:48.787Z,33.35
2022-11-24T07:26:50.457Z,28.85
2022-11-24T07:30:53.642Z,34.83
2022-11-24T07:35:00.435Z,34.78
2022-11-24T07:39:06.372Z,31.23
2022-11-24T07:41:10.711Z,31.73
2022-11-24T07:43:15.864Z,32.72
2022-11-24T07:45:24.928Z,31.38
2022-11-24T07:47:26.505Z,32.42
2022-11-24T07:49:28.147Z,29.83
2022-11-24T07:53:33.092Z,29.67
2022-11-24T07:55:34.758Z,28.48
2022-11-24T07:57:36.596Z,30.48
2022-11-24T07:59:38.177Z,33.08
2022-11-24T08:01:40.144Z,28.42
2022-11-24T08:03:42.781Z,32.28
2022-11-24T08:06:16.056Z,31.77
2022-11-24T08:08:14.539Z,31.42
2022-11-24T08:10:18.018Z,32.75
2022-11-24T08:12:19.844Z,33.30
2022-11-24T08:14:21.656Z,31.63
2022-11-24T08:16:23.634Z,34.38
2022-11-24T08:18:25.265Z,37.47
2022-11-24T08:20:26.937Z,33.13
2022-11-24T08:24:29.836Z,32.33
2022-11-24T08:26:32.774Z,33.33
2022-11-24T08:28:34.975Z,33.03
2022-11-24T08:30:36.622Z,34.70
2022-11-24T08:34:39.485Z,28.20
2022-11-24T08:36:41.168Z,26.50
2022-11-24T08:40:44.494Z,32.80
2022-11-24T08:42:47.450Z,35.05
2022-11-24T08:44:49.109Z,31.15
2022-11-24T08:48:53.934Z,29.75
2022-11-24T08:50:55.881Z,26.63
2022-11-24T08:52:57.507Z,30.50
2022-11-24T08:57:00.707Z,29.33
2022-11-24T08:59:04.894Z,29.48
2022-11-24T09:01:08.661Z,32.17
2022-11-24T09:03:11.510Z,28.83
2022-11-24T09:05:49.672Z,29.92
2022-11-24T09:07:34.799Z,32.78
2022-11-24T09:11:37.870Z,32.85
2022-11-24T09:13:40.644Z,30.55
2022-11-24T09:15:43.679Z,32.88
2022-11-24T09:17:45.260Z,32.30
2022-11-24T09:19:46.787Z,35.72
2022-11-24T09:21:48.390Z,34.35
2022-11-24T09:25:52.157Z,31.73
2022-11-24T09:27:53.756Z,31.98
2022-11-24T09:32:02.119Z,31.98
2022-11-24T09:34:11.300Z,36.65
2022-11-24T09:36:13.658Z,31.25
2022-11-24T09:38:15.413Z,31.95
2022-11-24T09:40:18.035Z,34.33
2022-11-24T09:42:30.995Z,32.47
2022-11-24T09:44:49.351Z,31.15
2022-11-24T09:47:00.617Z,33.22
2022-11-24T09:49:06.627Z,35.22
2022-11-24T09:51:12.461Z,35.00
2022-11-24T09:53:20.172Z,38.30
2022-11-24T09:55:29.504Z,37.75
2022-11-24T09:57:37.440Z,32.63
2022-11-24T09:59:41.084Z,32.78
2022-11-24T10:01:44.424Z,30.88
2022-11-24T10:03:48.676Z,33.13
2022-11-24T10:05:53.273Z,33.60
2022-11-24T10:08:11.624Z,29.77
2022-11-24T10:10:24.331Z,30.98
2022-11-24T10:12:41.194Z,32.05
2022-11-24T10:15:07.679Z,28.48
2022-11-24T10:17:23.974Z,29.48
2022-11-24T10:19:40.131Z,29.98
2022-11-24T10:22:05.138Z,33.92
2022-11-24T10:24:39.182Z,31.65
2022-11-24T10:26:47.506Z,31.38
2022-11-24T10:28:53.412Z,33.92
2022-11-24T10:31:11.540Z,29.30
2022-11-24T10:33:24.254Z,30.17
2022-11-24T10:35:36.221Z,29.98
2022-11-24T10:37:45.698Z,29.67
2022-11-24T10:40:00.016Z,27.70
2022-11-24T10:42:10.811Z,27.85
2022-11-24T10:44:13.260Z,29.45
2022-11-24T10:46:19.493Z,26.13
2022-11-24T10:48:26.006Z,25.98
2022-11-24T10:50:31.378Z,28.00
2022-11-24T10:52:40.471Z,27.23
2022-11-24T10:54:56.410Z,26.08
2022-11-24T10:56:57.989Z,29.48
2022-11-24T11:01:30.501Z,27.17
2022-11-24T11:03:33.038Z,29.88
2022-11-24T11:05:39.414Z,29.42
2022-11-24T11:07:41.012Z,31.50
2022-11-24T11:09:42.726Z,29.25
2022-11-24T11:11:46.634Z,30.75
2022-11-24T11:13:58.234Z,29.23
2022-11-24T11:16:19.126Z,28.55
2022-11-24T11:18:21.588Z,29.05
2022-11-24T11:20:28.768Z,29.45
2022-11-24T11:22:32.774Z,28.00
2022-11-24T11:24:34.373Z,30.52
2022-11-24T11:28:39.705Z,28.50
2022-11-24T11:35:25.931Z,31.98
2022-11-24T11:37:30.872Z,27.40
2022-11-24T11:39:35.248Z,25.13
2022-11-24T11:41:42.106Z,30.30
2022-11-24T11:43:47.891Z,30.50
2022-11-24T11:45:59.329Z,27.85
2022-11-24T11:48:17.676Z,31.38
2022-11-24T11:50:25.440Z,30.95
2022-11-24T11:53:00.028Z,30.02
2022-11-24T11:55:31.842Z,30.77
2022-11-24T11:57:38.796Z,29.33
2022-11-24T12:00:12.704Z,26.58
2022-11-24T12:02:53.290Z,27.00
2022-11-24T12:05:00.046Z,30.50
2022-11-24T12:07:43.945Z,28.75
2022-11-24T12:09:57.778Z,28.83
2022-11-24T12:12:15.500Z,27.55
2022-11-24T12:14:29.467Z,29.40
2022-11-24T12:16:44.043Z,26.75
2022-11-24T12:18:58.243Z,27.95
2022-11-24T12:21:09.039Z,26.15
2022-11-24T12:23:22.097Z,29.45
2022-11-24T12:25:29.212Z,29.05
2022-11-24T12:27:41.850Z,31.27
2022-11-24T12:29:56.982Z,28.90
2022-11-24T12:32:11.472Z,25.98
2022-11-24T12:34:29.228Z,30.40
2022-11-24T12:36:44.538Z,26.90
2022-11-24T12:38:56.977Z,28.98
2022-11-24T12:43:40.337Z,25.15
2022-11-24T12:45:49.917Z,26.60
2022-11-24T12:48:26.907Z,27.45
2022-11-24T12:50:33.018Z,28.33
2022-11-24T12:52:40.156Z,27.05
2022-11-24T12:54:41.758Z,26.25
2022-11-24T12:58:54.425Z,27.13
2022-11-24T13:01:11.679Z,31.15
2022-11-24T13:03:30.677Z,27.33
2022-11-24T13:05:41.215Z,30.15
2022-11-24T13:07:47.487Z,28.40
2022-11-24T13:10:53.993Z,28.98
2022-11-24T13:12:56.481Z,28.88
2022-11-24T13:14:58.314Z,25.70
2022-11-24T13:19:24.885Z,30.27
2022-11-24T13:21:50.357Z,28.35
2022-11-24T13:23:56.501Z,27.25
2022-11-24T13:26:27.662Z,30.23
2022-11-24T13:29:09.243Z,27.80
2022-11-24T13:31:22.723Z,28.20
2022-11-24T13:33:30.481Z,28.75
2022-11-24T13:35:32.107Z,27.63
2022-11-24T13:37:49.204Z,27.60
2022-11-24T13:39:53.186Z,28.27
2022-11-24T13:42:03.585Z,26.77
2022-11-24T13:44:23.215Z,25.63
2022-11-24T13:47:04.873Z,28.95
2022-11-24T13:49:13.919Z,26.25
2022-11-24T13:53:31.419Z,31.42
2022-11-24T13:55:36.445Z,32.83
2022-11-24T13:57:39.586Z,29.50
2022-11-24T13:59:41.820Z,29.13
2022-11-24T14:01:44.665Z,27.60
2022-11-24T14:04:29.787Z,25.77
2022-11-24T14:06:29.595Z,29.95
2022-11-24T14:08:37.520Z,25.95
2022-11-24T14:12:42.628Z,27.52
2022-11-24T14:16:46.606Z,28.00
2022-11-24T14:18:49.692Z,29.98
2022-11-24T14:20:51.300Z,30.42
2022-11-24T14:22:53.639Z,25.80
2022-11-24T14:24:58.148Z,25.45
2022-11-24T14:27:01.098Z,28.35
2022-11-24T14:29:07.344Z,26.52
2022-11-24T14:31:16.454Z,28.60
2022-11-24T14:33:19.746Z,30.45
2022-11-24T14:35:23.548Z,32.17
2022-11-24T14:37:25.169Z,31.23
2022-11-24T14:41:31.872Z,28.25
2022-11-24T14:43:33.603Z,26.20
2022-11-24T14:45:35.532Z,25.83
2022-11-24T14:47:44.642Z,25.25
2022-11-24T14:49:46.718Z,27.85
2022-11-24T14:51:55.469Z,29.45
2022-11-24T14:54:00.748Z,26.63
2022-11-24T14:56:23.315Z,27.17
2022-11-24T14:58:31.935Z,26.55
2022-11-24T15:00:33.869Z,25.52
2022-11-24T15:02:39.345Z,29.90
2022-11-24T15:05:02.671Z,28.08
2022-11-24T15:07:13.866Z,28.20
2022-11-24T15:09:28.313Z,30.00
2022-11-24T15:11:30.641Z,30.17
2022-11-24T15:13:36.522Z,31.70
2022-11-24T15:15:39.263Z,25.90
2022-11-24T15:17:47.582Z,30.95
2022-11-24T15:19:53.524Z,28.77
2022-11-24T15:21:55.156Z,27.05
2022-11-24T15:24:14.936Z,25.85
2022-11-24T15:26:28.831Z,28.83
2022-11-24T15:28:33.534Z,29.13
2022-11-24T15:30:36.398Z,25.73
2022-11-24T15:32:48.651Z,29.42
2022-11-24T15:34:50.154Z,27.10
2022-11-24T15:38:53.195Z,28.48
2022-11-24T15:43:01.940Z,29.15
2022-11-24T15:45:09.318Z,32.50
2022-11-24T15:47:10.878Z,32.97
2022-11-24T15:49:12.589Z,43.83
2022-11-24T15:51:14.486Z,37.55
2022-11-24T15:53:19.305Z,31.42
2022-11-24T15:55:22.202Z,32.65
2022-11-24T15:57:23.982Z,35.20
2022-11-24T15:59:25.509Z,35.42
2022-11-24T16:03:48.257Z,41.75
2022-11-24T16:05:53.964Z,35.92
2022-11-24T16:07:55.604Z,34.08
2022-11-24T16:09:57.197Z,35.40
2022-11-24T16:14:00.688Z,31.45
2022-11-24T16:16:02.350Z,37.05
2022-11-24T16:18:06.263Z,34.70
2022-11-24T16:20:08.768Z,33.97
2022-11-24T16:22:10.294Z,35.05
2022-11-24T16:26:13.399Z,36.63
2022-11-24T16:28:15.034Z,33.00
2022-11-24T16:30:16.916Z,34.88
2022-11-24T16:32:18.515Z,32.67
2022-11-24T16:34:21.510Z,38.33
2022-11-24T16:36:23.083Z,34.80
2022-11-24T16:38:24.794Z,36.20
2022-11-24T16:40:26.394Z,34.85
2022-11-24T16:42:28.384Z,32.50
2022-11-24T16:44:29.923Z,35.13
2022-11-24T16:48:35.919Z,34.08
2022-11-24T16:50:39.007Z,36.72
2022-11-24T16:52:40.572Z,32.15
2022-11-24T16:56:43.514Z,33.42
2022-11-24T16:58:45.074Z,35.33
2022-11-24T17:02:48.193Z,37.38
2022-11-24T17:04:49.840Z,31.90
2022-11-24T17:06:52.777Z,34.88
2022-11-24T17:08:55.229Z,33.33
2022-11-24T17:10:56.814Z,36.35
2022-11-24T17:12:58.351Z,31.85
2022-11-24T17:17:21.331Z,34.75
2022-11-24T17:19:22.970Z,38.75
2022-11-24T17:21:26.722Z,35.80
2022-11-24T17:23:29.668Z,34.83
2022-11-24T17:25:31.975Z,36.53
2022-11-24T17:27:33.608Z,36.03
2022-11-24T17:29:35.179Z,33.22
2022-11-24T17:31:36.780Z,32.03
2022-11-24T17:33:38.435Z,33.08
2022-11-24T17:35:39.944Z,32.90
2022-11-24T17:39:54.777Z,28.73
2022-11-24T17:42:07.736Z,32.28
2022-11-24T17:44:09.569Z,31.35
2022-11-24T17:46:11.493Z,35.05
2022-11-24T17:48:13.213Z,33.38
2022-11-24T17:50:14.872Z,31.65
2022-11-24T17:52:16.882Z,35.40
2022-11-24T17:56:41.994Z,35.38
2022-11-24T17:58:43.749Z,32.65
2022-11-24T18:00:45.469Z,36.47
2022-11-24T18:02:47.114Z,37.08
2022-11-24T18:04:49.051Z,40.30
2022-11-24T18:06:50.639Z,34.67
2022-11-24T18:08:53.392Z,34.80
2022-11-24T18:11:03.003Z,36.88
2022-11-24T18:13:06.232Z,38.05
2022-11-24T18:15:08.638Z,40.03
2022-11-24T18:17:10.302Z,38.78
2022-11-24T18:19:12.104Z,37.08
2022-11-24T18:21:16.350Z,33.17
2022-11-24T18:23:18.541Z,35.65
2022-11-24T18:25:20.174Z,35.35
2022-11-24T18:27:21.790Z,31.52
2022-11-24T18:29:24.732Z,35.17
2022-11-24T18:31:26.468Z,31.73
2022-11-24T18:33:28.033Z,39.90
2022-11-24T18:37:31.177Z,29.95
2022-11-24T18:39:32.822Z,30.20
2022-11-24T18:41:35.129Z,29.45
2022-11-24T18:43:36.833Z,34.45
2022-11-24T18:45:39.836Z,31.90
2022-11-24T18:47:41.465Z,29.92
2022-11-24T18:51:45.006Z,31.15
2022-11-24T18:53:50.629Z,35.92
2022-11-24T18:55:56.879Z,30.60
2022-11-24T18:57:58.401Z,29.95
2022-11-24T19:02:02.811Z,32.55
2022-11-24T19:04:04.494Z,30.70
2022-11-24T19:06:08.043Z,30.05
2022-11-24T19:08:09.606Z,29.98
2022-11-24T19:12:13.148Z,29.83
2022-11-24T19:14:17.489Z,29.27
2022-11-24T19:16:20.467Z,33.75
2022-11-24T19:18:23.513Z,32.13
2022-11-24T19:20:28.575Z,32.20
2022-11-24T19:22:30.073Z,32.55
2022-11-24T19:26:33.222Z,34.80
2022-11-24T19:28:34.885Z,35.83
2022-11-24T19:30:36.488Z,33.90
2022-11-24T19:34:40.804Z,35.83
2022-11-24T19:36:42.529Z,39.40
2022-11-24T19:38:49.533Z,34.40
2022-11-24T19:40:51.053Z,32.78
2022-11-24T19:42:53.127Z,40.00
2022-11-24T19:44:56.673Z,36.08
2022-11-24T19:46:58.510Z,31.42
2022-11-24T19:51:05.647Z,35.00
2022-11-24T19:53:07.257Z,34.15
2022-11-24T19:57:13.194Z,31.77
2022-11-24T20:01:17.915Z,30.98
2022-11-24T20:03:19.539Z,32.13
2022-11-24T20:07:24.197Z,33.65
2022-11-24T20:09:25.975Z,29.33
2022-11-24T20:11:28.527Z,33.45
2022-11-24T20:13:30.445Z,45.78
2022-11-24T20:15:33.574Z,34.88
2022-11-24T20:17:35.221Z,195.95
2022-11-24T20:19:36.799Z,86.82
2022-11-24T20:23:42.534Z,34.35
2022-11-24T20:25:44.062Z,51.50
2022-11-24T20:27:45.681Z,42.78
2022-11-24T20:29:47.295Z,39.65
2022-11-24T20:33:51.473Z,44.00
2022-11-24T20:37:54.593Z,37.42
2022-11-24T20:39:57.556Z,36.47
2022-11-24T20:41:59.061Z,39.60
2022-11-24T20:44:02.745Z,45.92
2022-11-24T20:46:05.853Z,50.03
2022-11-24T20:48:07.463Z,50.28
2022-11-24T20:52:11.528Z,41.13
2022-11-24T20:56:18.497Z,40.17
2022-11-24T20:58:20.021Z,40.97
2022-11-24T21:00:21.705Z,39.75
2022-11-24T21:02:23.418Z,39.92
2022-11-24T21:04:26.777Z,42.25
2022-11-24T21:06:28.754Z,43.00
2022-11-24T21:08:33.035Z,36.65
2022-11-24T21:10:34.587Z,38.60
2022-11-24T21:14:38.994Z,45.53
2022-11-24T21:16:41.898Z,40.85
2022-11-24T21:18:44.892Z,43.63
2022-11-24T21:20:46.652Z,40.42
2022-11-24T21:22:48.238Z,38.30
2022-11-24T21:24:49.773Z,31.80
2022-11-24T21:28:54.282Z,33.30
2022-11-24T21:30:55.867Z,33.72
2022-11-24T21:34:58.911Z,33.25
2022-11-24T21:39:03.375Z,33.97
2022-11-24T21:41:07.600Z,34.25
2022-11-24T21:43:09.141Z,46.22
2022-11-24T21:47:13.639Z,34.30
2022-11-24T21:51:18.138Z,36.90
2022-11-24T21:53:19.669Z,66.70
2022-11-24T21:57:22.547Z,26.33
2022-11-24T22:01:28.335Z,27.10
2022-11-24T22:03:29.995Z,60.50
2022-11-24T22:07:33.149Z,58.08
2022-11-24T22:09:34.723Z,37.08
2022-11-24T22:13:37.981Z,32.10
2022-11-24T22:15:39.524Z,30.42
2022-11-24T22:19:43.820Z,31.58
2022-11-24T22:23:50.303Z,30.88
2022-11-24T22:25:51.845Z,34.42
2022-11-24T22:29:59.148Z,26.20
2022-11-24T22:32:00.750Z,25.70
2022-11-24T22:34:04.784Z,25.70
2022-11-24T22:36:07.418Z,26.52
2022-11-24T22:38:08.939Z,26.77
2022-11-24T22:42:12.336Z,26.02
2022-11-24T22:44:13.872Z,31.08
2022-11-24T22:48:17.531Z,30.33
2022-11-24T22:52:21.864Z,28.45
2022-11-24T22:56:25.211Z,30.63
2022-11-24T22:58:26.798Z,30.75
2022-11-24T23:00:28.371Z,29.23
2022-11-24T23:04:31.304Z,29.48
2022-11-24T23:08:36.435Z,30.05
2022-11-24T23:10:38.124Z,26.35
2022-11-24T23:12:39.674Z,28.40
2022-11-24T23:16:43.069Z,27.60
2022-11-24T23:18:51.033Z,29.45
2022-11-24T23:20:55.216Z,47.25
2022-11-24T23:24:59.475Z,49.67
2022-11-24T23:29:02.788Z,33.70
2022-11-24T23:31:06.659Z,34.97
2022-11-24T23:33:08.195Z,31.90
2022-11-24T23:37:15.602Z,32.85
2022-11-24T23:41:21.450Z,33.08
2022-11-24T23:43:28.417Z,29.35
2022-11-24T23:45:30.024Z,27.88
2022-11-24T23:47:31.953Z,28.35
2022-11-24T23:49:33.589Z,29.88
2022-11-24T23:53:36.988Z,28.58
2022-11-24T23:55:39.899Z,25.65
2022-11-24T23:57:41.428Z,32.25
